sensor_id;sensor_type;location;lat;lon;timestamp;pressure;altitude;pressure_sealevel;temperature;humidity
78411;BME280;67706;51.074;-1.796;2023-05-07T00:02:03;100955.47;;;11.54;93.15
78411;BME280;67706;51.074;-1.796;2023-05-07T00:04:30;100952.69;;;11.47;93.78
78411;BME280;67706;51.074;-1.796;2023-05-07T00:07:01;100955.97;;;11.36;93.80
78411;BME280;67706;51.074;-1.796;2023-05-07T00:09:27;100960.22;;;11.39;93.82
78411;BME280;67706;51.074;-1.796;2023-05-07T00:11:54;100956.06;;;11.49;93.61
78411;BME280;67706;51.074;-1.796;2023-05-07T00:14:22;100958.22;;;11.54;93.18
78411;BME280;67706;51.074;-1.796;2023-05-07T00:16:49;100951.81;;;11.47;93.24
78411;BME280;67706;51.074;-1.796;2023-05-07T00:19:16;100955.97;;;11.36;93.88
78411;BME280;67706;51.074;-1.796;2023-05-07T00:21:42;100948.81;;;11.42;94.24
78411;BME280;67706;51.074;-1.796;2023-05-07T00:24:09;100953.50;;;11.41;94.25
78411;BME280;67706;51.074;-1.796;2023-05-07T00:26:36;100945.00;;;11.36;94.26
78411;BME280;67706;51.074;-1.796;2023-05-07T00:29:03;100952.63;;;11.41;94.27
78411;BME280;67706;51.074;-1.796;2023-05-07T00:31:31;100954.72;;;11.39;94.35
78411;BME280;67706;51.074;-1.796;2023-05-07T00:33:57;100950.88;;;11.33;94.16
78411;BME280;67706;51.074;-1.796;2023-05-07T00:36:24;100956.19;;;11.35;94.13
78411;BME280;67706;51.074;-1.796;2023-05-07T00:38:53;100951.50;;;11.29;93.95
78411;BME280;67706;51.074;-1.796;2023-05-07T00:41:20;100960.63;;;11.36;93.85
78411;BME280;67706;51.074;-1.796;2023-05-07T00:43:47;100953.22;;;11.36;93.30
78411;BME280;67706;51.074;-1.796;2023-05-07T00:46:13;100958.88;;;11.28;93.34
78411;BME280;67706;51.074;-1.796;2023-05-07T00:48:42;100962.06;;;11.32;93.49
78411;BME280;67706;51.074;-1.796;2023-05-07T00:51:09;100964.97;;;11.24;94.10
78411;BME280;67706;51.074;-1.796;2023-05-07T00:53:37;100957.53;;;11.17;94.35
78411;BME280;67706;51.074;-1.796;2023-05-07T00:56:05;100955.81;;;11.16;94.70
78411;BME280;67706;51.074;-1.796;2023-05-07T00:58:32;100960.91;;;11.19;94.74
78411;BME280;67706;51.074;-1.796;2023-05-07T01:00:59;100962.16;;;11.17;94.33
78411;BME280;67706;51.074;-1.796;2023-05-07T01:03:26;100957.53;;;11.17;93.55
78411;BME280;67706;51.074;-1.796;2023-05-07T01:05:54;100953.28;;;11.15;93.01
78411;BME280;67706;51.074;-1.796;2023-05-07T01:08:23;100962.91;;;11.04;93.30
78411;BME280;67706;51.074;-1.796;2023-05-07T01:10:52;100964.94;;;10.96;94.17
78411;BME280;67706;51.074;-1.796;2023-05-07T01:13:19;100961.16;;;10.97;93.80
78411;BME280;67706;51.074;-1.796;2023-05-07T01:15:46;100962.91;;;11.04;93.50
78411;BME280;67706;51.074;-1.796;2023-05-07T01:18:13;100968.81;;;11.01;93.25
78411;BME280;67706;51.074;-1.796;2023-05-07T01:20:41;100963.31;;;11.01;93.22
78411;BME280;67706;51.074;-1.796;2023-05-07T01:23:10;100962.38;;;10.94;93.11
78411;BME280;67706;51.074;-1.796;2023-05-07T01:25:37;100961.47;;;10.87;93.63
78411;BME280;67706;51.074;-1.796;2023-05-07T01:28:04;100960.81;;;10.85;93.91
78411;BME280;67706;51.074;-1.796;2023-05-07T01:30:32;100962.31;;;10.88;94.01
78411;BME280;67706;51.074;-1.796;2023-05-07T01:33:10;100966.88;;;11.02;93.75
78411;BME280;67706;51.074;-1.796;2023-05-07T01:35:39;100967.50;;;10.97;93.50
78411;BME280;67706;51.074;-1.796;2023-05-07T01:38:09;100967.22;;;10.92;93.58
78411;BME280;67706;51.074;-1.796;2023-05-07T01:40:35;100974.41;;;10.93;93.73
78411;BME280;67706;51.074;-1.796;2023-05-07T01:43:02;100975.00;;;10.89;93.82
78411;BME280;67706;51.074;-1.796;2023-05-07T01:45:30;100973.31;;;10.88;94.10
78411;BME280;67706;51.074;-1.796;2023-05-07T01:47:57;100971.13;;;10.83;93.90
78411;BME280;67706;51.074;-1.796;2023-05-07T01:50:25;100965.66;;;10.83;94.28
78411;BME280;67706;51.074;-1.796;2023-05-07T01:52:52;100969.31;;;10.90;94.03
78411;BME280;67706;51.074;-1.796;2023-05-07T01:55:20;100969.63;;;11.02;94.10
78411;BME280;67706;51.074;-1.796;2023-05-07T01:57:47;100976.41;;;11.06;94.07
78411;BME280;67706;51.074;-1.796;2023-05-07T02:00:14;100979.38;;;11.04;93.78
78411;BME280;67706;51.074;-1.796;2023-05-07T02:02:41;100978.50;;;11.04;94.00
78411;BME280;67706;51.074;-1.796;2023-05-07T02:05:08;100982.47;;;10.95;94.49
78411;BME280;67706;51.074;-1.796;2023-05-07T02:07:35;100973.38;;;10.94;94.60
78411;BME280;67706;51.074;-1.796;2023-05-07T02:10:02;100980.38;;;10.97;94.66
78411;BME280;67706;51.074;-1.796;2023-05-07T02:12:30;100978.41;;;10.91;94.90
78411;BME280;67706;51.074;-1.796;2023-05-07T02:14:57;100979.50;;;10.96;94.36
78411;BME280;67706;51.074;-1.796;2023-05-07T02:17:23;100983.97;;;10.97;94.26
78411;BME280;67706;51.074;-1.796;2023-05-07T02:19:50;100991.13;;;10.98;93.70
78411;BME280;67706;51.074;-1.796;2023-05-07T02:22:17;100996.13;;;10.88;93.71
78411;BME280;67706;51.074;-1.796;2023-05-07T02:24:44;100997.34;;;10.86;93.15
78411;BME280;67706;51.074;-1.796;2023-05-07T02:27:11;101005.31;;;10.81;93.38
78411;BME280;67706;51.074;-1.796;2023-05-07T02:29:39;101005.91;;;10.76;93.64
78411;BME280;67706;51.074;-1.796;2023-05-07T02:32:05;101002.53;;;10.74;93.62
78411;BME280;67706;51.074;-1.796;2023-05-07T02:34:32;101013.88;;;10.71;93.14
78411;BME280;67706;51.074;-1.796;2023-05-07T02:36:59;101006.88;;;10.69;93.11
78411;BME280;67706;51.074;-1.796;2023-05-07T02:39:26;101013.06;;;10.56;93.38
78411;BME280;67706;51.074;-1.796;2023-05-07T02:41:52;101018.94;;;10.53;93.28
78411;BME280;67706;51.074;-1.796;2023-05-07T02:44:19;101016.22;;;10.53;92.98
78411;BME280;67706;51.074;-1.796;2023-05-07T02:46:47;101023.03;;;10.43;93.39
78411;BME280;67706;51.074;-1.796;2023-05-07T02:49:14;101035.53;;;10.45;93.94
78411;BME280;67706;51.074;-1.796;2023-05-07T02:51:40;101024.81;;;10.50;93.42
78411;BME280;67706;51.074;-1.796;2023-05-07T02:54:07;101033.44;;;10.68;92.98
78411;BME280;67706;51.074;-1.796;2023-05-07T02:56:33;101032.88;;;10.73;92.70
78411;BME280;67706;51.074;-1.796;2023-05-07T02:59:00;101041.38;;;10.78;92.36
78411;BME280;67706;51.074;-1.796;2023-05-07T03:01:27;101039.63;;;10.70;92.19
78411;BME280;67706;51.074;-1.796;2023-05-07T03:03:55;101037.72;;;10.71;92.05
78411;BME280;67706;51.074;-1.796;2023-05-07T03:06:22;101042.63;;;10.75;92.00
78411;BME280;67706;51.074;-1.796;2023-05-07T03:08:49;101043.03;;;10.72;91.88
78411;BME280;67706;51.074;-1.796;2023-05-07T03:11:15;101041.50;;;10.70;91.88
78411;BME280;67706;51.074;-1.796;2023-05-07T03:13:42;101040.97;;;10.81;91.73
78411;BME280;67706;51.074;-1.796;2023-05-07T03:16:09;101052.38;;;10.78;91.63
78411;BME280;67706;51.074;-1.796;2023-05-07T03:18:36;101047.91;;;10.77;91.62
78411;BME280;67706;51.074;-1.796;2023-05-07T03:21:04;101039.50;;;10.78;91.69
78411;BME280;67706;51.074;-1.796;2023-05-07T03:23:30;101043.69;;;10.74;91.75
78411;BME280;67706;51.074;-1.796;2023-05-07T03:25:57;101051.72;;;10.76;91.64
78411;BME280;67706;51.074;-1.796;2023-05-07T03:28:24;101060.16;;;10.74;92.00
78411;BME280;67706;51.074;-1.796;2023-05-07T03:30:50;101063.06;;;10.73;92.23
78411;BME280;67706;51.074;-1.796;2023-05-07T03:33:17;101073.22;;;10.72;92.64
78411;BME280;67706;51.074;-1.796;2023-05-07T03:35:44;101073.88;;;10.74;92.72
78411;BME280;67706;51.074;-1.796;2023-05-07T03:38:12;101062.94;;;10.81;92.58
78411;BME280;67706;51.074;-1.796;2023-05-07T03:40:39;101068.25;;;10.82;92.79
78411;BME280;67706;51.074;-1.796;2023-05-07T03:43:05;101072.31;;;10.86;92.73
78411;BME280;67706;51.074;-1.796;2023-05-07T03:45:32;101074.41;;;10.84;92.68
78411;BME280;67706;51.074;-1.796;2023-05-07T03:47:59;101074.97;;;10.80;92.82
78411;BME280;67706;51.074;-1.796;2023-05-07T03:50:25;101078.81;;;10.85;92.92
78411;BME280;67706;51.074;-1.796;2023-05-07T03:52:52;101080.13;;;10.89;92.77
78411;BME280;67706;51.074;-1.796;2023-05-07T03:55:20;101083.75;;;10.90;92.87
78411;BME280;67706;51.074;-1.796;2023-05-07T03:57:47;101083.38;;;10.93;92.99
78411;BME280;67706;51.074;-1.796;2023-05-07T04:00:14;101072.75;;;10.90;93.02
78411;BME280;67706;51.074;-1.796;2023-05-07T04:02:41;101074.78;;;11.02;92.68
78411;BME280;67706;51.074;-1.796;2023-05-07T04:05:08;101076.97;;;11.07;92.40
78411;BME280;67706;51.074;-1.796;2023-05-07T04:07:34;101065.59;;;11.10;91.71
78411;BME280;67706;51.074;-1.796;2023-05-07T04:10:01;101075.44;;;11.04;91.50
78411;BME280;67706;51.074;-1.796;2023-05-07T04:12:29;101080.94;;;11.04;91.83
78411;BME280;67706;51.074;-1.796;2023-05-07T04:14:56;101083.44;;;10.99;91.78
78411;BME280;67706;51.074;-1.796;2023-05-07T04:17:23;101081.41;;;11.08;91.64
78411;BME280;67706;51.074;-1.796;2023-05-07T04:19:49;101078.91;;;11.13;91.53
78411;BME280;67706;51.074;-1.796;2023-05-07T04:22:16;101084.34;;;11.06;91.65
78411;BME280;67706;51.074;-1.796;2023-05-07T04:24:43;101084.91;;;11.02;91.76
78411;BME280;67706;51.074;-1.796;2023-05-07T04:27:09;101089.59;;;11.01;91.65
78411;BME280;67706;51.074;-1.796;2023-05-07T04:29:37;101090.91;;;11.05;91.44
78411;BME280;67706;51.074;-1.796;2023-05-07T04:32:07;101087.38;;;11.11;91.51
78411;BME280;67706;51.074;-1.796;2023-05-07T04:34:34;101083.84;;;11.17;90.86
78411;BME280;67706;51.074;-1.796;2023-05-07T04:37:01;101089.66;;;11.08;91.33
78411;BME280;67706;51.074;-1.796;2023-05-07T04:39:27;101096.38;;;11.05;91.60
78411;BME280;67706;51.074;-1.796;2023-05-07T04:41:54;101091.91;;;11.04;91.43
78411;BME280;67706;51.074;-1.796;2023-05-07T04:44:21;101091.06;;;11.04;91.46
78411;BME280;67706;51.074;-1.796;2023-05-07T04:46:49;101091.69;;;10.99;91.75
78411;BME280;67706;51.074;-1.796;2023-05-07T04:49:15;101098.72;;;11.08;91.26
78411;BME280;67706;51.074;-1.796;2023-05-07T04:51:42;101096.06;;;11.15;90.86
78411;BME280;67706;51.074;-1.796;2023-05-07T04:54:09;101096.38;;;11.05;91.48
78411;BME280;67706;51.074;-1.796;2023-05-07T04:56:35;101101.47;;;11.08;91.36
78411;BME280;67706;51.074;-1.796;2023-05-07T04:59:02;101091.91;;;11.04;90.99
78411;BME280;67706;51.074;-1.796;2023-05-07T05:01:29;101096.63;;;11.10;91.27
78411;BME280;67706;51.074;-1.796;2023-05-07T05:03:57;101104.50;;;11.13;90.88
78411;BME280;67706;51.074;-1.796;2023-05-07T05:06:25;101103.19;;;11.09;91.05
78411;BME280;67706;51.074;-1.796;2023-05-07T05:08:52;101101.22;;;11.03;91.06
78411;BME280;67706;51.074;-1.796;2023-05-07T05:11:18;101116.63;;;11.04;91.33
78411;BME280;67706;51.074;-1.796;2023-05-07T05:13:45;101128.09;;;11.08;91.47
78411;BME280;67706;51.074;-1.796;2023-05-07T05:16:14;101116.91;;;11.09;91.07
78411;BME280;67706;51.074;-1.796;2023-05-07T05:18:40;101115.47;;;11.13;91.04
78411;BME280;67706;51.074;-1.796;2023-05-07T05:21:09;101117.94;;;11.08;90.53
78411;BME280;67706;51.074;-1.796;2023-05-07T05:23:35;101131.22;;;11.05;90.97
78411;BME280;67706;51.074;-1.796;2023-05-07T05:26:02;101138.00;;;11.09;91.13
78411;BME280;67706;51.074;-1.796;2023-05-07T05:28:29;101139.13;;;11.14;90.97
78411;BME280;67706;51.074;-1.796;2023-05-07T05:30:55;101141.69;;;11.16;90.97
78411;BME280;67706;51.074;-1.796;2023-05-07T05:33:22;101148.00;;;11.16;90.69
78411;BME280;67706;51.074;-1.796;2023-05-07T05:35:49;101160.25;;;11.14;91.08
78411;BME280;67706;51.074;-1.796;2023-05-07T05:38:18;101152.75;;;11.23;91.31
78411;BME280;67706;51.074;-1.796;2023-05-07T05:40:46;101145.88;;;11.33;90.40
78411;BME280;67706;51.074;-1.796;2023-05-07T05:43:13;101143.53;;;11.30;90.67
78411;BME280;67706;51.074;-1.796;2023-05-07T05:45:40;101154.59;;;11.37;90.57
78411;BME280;67706;51.074;-1.796;2023-05-07T05:48:06;101150.41;;;11.41;90.75
78411;BME280;67706;51.074;-1.796;2023-05-07T05:50:33;101150.53;;;11.54;89.83
78411;BME280;67706;51.074;-1.796;2023-05-07T05:53:01;101152.66;;;11.52;89.78
78411;BME280;67706;51.074;-1.796;2023-05-07T05:55:29;101148.19;;;11.51;90.32
78411;BME280;67706;51.074;-1.796;2023-05-07T05:57:57;101153.03;;;11.49;89.79
78411;BME280;67706;51.074;-1.796;2023-05-07T06:00:24;101150.13;;;11.57;89.62
78411;BME280;67706;51.074;-1.796;2023-05-07T06:02:52;101158.25;;;11.65;89.30
78411;BME280;67706;51.074;-1.796;2023-05-07T06:05:18;101158.25;;;11.65;89.52
78411;BME280;67706;51.074;-1.796;2023-05-07T06:07:45;101158.75;;;11.68;89.21
78411;BME280;67706;51.074;-1.796;2023-05-07T06:10:12;101152.19;;;11.69;89.23
78411;BME280;67706;51.074;-1.796;2023-05-07T06:12:40;101157.59;;;11.63;88.59
78411;BME280;67706;51.074;-1.796;2023-05-07T06:15:07;101160.34;;;11.63;88.59
78411;BME280;67706;51.074;-1.796;2023-05-07T06:17:33;101156.19;;;11.67;88.39
78411;BME280;67706;51.074;-1.796;2023-05-07T06:20:00;101151.44;;;11.61;88.62
78411;BME280;67706;51.074;-1.796;2023-05-07T06:22:27;101160.84;;;11.66;88.50
78411;BME280;67706;51.074;-1.796;2023-05-07T06:24:53;101162.84;;;11.58;88.95
78411;BME280;67706;51.074;-1.796;2023-05-07T06:27:20;101154.59;;;11.58;89.34
78411;BME280;67706;51.074;-1.796;2023-05-07T06:29:49;101168.72;;;11.55;89.85
78411;BME280;67706;51.074;-1.796;2023-05-07T06:32:15;101169.22;;;11.65;89.52
78411;BME280;67706;51.074;-1.796;2023-05-07T06:34:43;101190.88;;;11.68;89.02
78411;BME280;67706;51.074;-1.796;2023-05-07T06:37:09;101194.66;;;11.67;89.40
78411;BME280;67706;51.074;-1.796;2023-05-07T06:39:36;101194.97;;;11.57;88.54
78411;BME280;67706;51.074;-1.796;2023-05-07T06:42:03;101203.78;;;11.53;88.95
78411;BME280;67706;51.074;-1.796;2023-05-07T06:44:31;101205.28;;;11.55;88.50
78411;BME280;67706;51.074;-1.796;2023-05-07T06:46:59;101207.47;;;11.60;88.69
78411;BME280;67706;51.074;-1.796;2023-05-07T06:49:26;101208.50;;;11.59;88.02
78411;BME280;67706;51.074;-1.796;2023-05-07T06:51:52;101208.13;;;11.62;87.67
78411;BME280;67706;51.074;-1.796;2023-05-07T06:54:19;101202.41;;;11.63;88.04
78411;BME280;67706;51.074;-1.796;2023-05-07T06:56:46;101213.41;;;11.63;87.95
78411;BME280;67706;51.074;-1.796;2023-05-07T06:59:12;101205.34;;;11.76;87.66
78411;BME280;67706;51.074;-1.796;2023-05-07T07:01:39;101199.78;;;11.70;87.59
78411;BME280;67706;51.074;-1.796;2023-05-07T07:04:07;101201.44;;;11.71;87.02
78411;BME280;67706;51.074;-1.796;2023-05-07T07:06:34;101208.66;;;11.72;87.23
78411;BME280;67706;51.074;-1.796;2023-05-07T07:09:00;101209.91;;;11.69;86.51
78411;BME280;67706;51.074;-1.796;2023-05-07T07:11:27;101194.28;;;11.70;86.45
78411;BME280;67706;51.074;-1.796;2023-05-07T07:13:54;101203.25;;;11.78;86.03
78411;BME280;67706;51.074;-1.796;2023-05-07T07:16:21;101202.00;;;11.81;86.26
78411;BME280;67706;51.074;-1.796;2023-05-07T07:18:47;101210.09;;;11.89;86.12
78411;BME280;67706;51.074;-1.796;2023-05-07T07:21:16;101209.84;;;11.84;85.71
78411;BME280;67706;51.074;-1.796;2023-05-07T07:23:42;101218.22;;;11.97;85.34
78411;BME280;67706;51.074;-1.796;2023-05-07T07:26:09;101220.81;;;12.05;84.67
78411;BME280;67706;51.074;-1.796;2023-05-07T07:28:42;101227.19;;;12.06;84.89
78411;BME280;67706;51.074;-1.796;2023-05-07T07:31:09;101230.00;;;12.12;84.67
78411;BME280;67706;51.074;-1.796;2023-05-07T07:33:36;101234.84;;;12.10;85.19
78411;BME280;67706;51.074;-1.796;2023-05-07T07:36:03;101230.50;;;12.01;85.09
78411;BME280;67706;51.074;-1.796;2023-05-07T07:38:31;101241.00;;;12.12;85.30
78411;BME280;67706;51.074;-1.796;2023-05-07T07:40:59;101236.66;;;12.24;85.10
78411;BME280;67706;51.074;-1.796;2023-05-07T07:43:26;101246.78;;;12.24;84.00
78411;BME280;67706;51.074;-1.796;2023-05-07T07:45:53;101251.84;;;12.20;84.14
78411;BME280;67706;51.074;-1.796;2023-05-07T07:48:20;101252.41;;;12.37;84.20
78411;BME280;67706;51.074;-1.796;2023-05-07T07:50:48;101250.75;;;12.42;83.55
78411;BME280;67706;51.074;-1.796;2023-05-07T07:53:15;101250.50;;;12.37;83.82
78411;BME280;67706;51.074;-1.796;2023-05-07T07:55:43;101247.41;;;12.47;83.90
78411;BME280;67706;51.074;-1.796;2023-05-07T07:58:10;101254.19;;;12.51;84.02
78411;BME280;67706;51.074;-1.796;2023-05-07T08:00:37;101247.34;;;12.40;84.22
78411;BME280;67706;51.074;-1.796;2023-05-07T08:03:03;101256.13;;;12.50;83.99
78411;BME280;67706;51.074;-1.796;2023-05-07T08:05:32;101260.34;;;12.53;84.31
78411;BME280;67706;51.074;-1.796;2023-05-07T08:07:58;101251.34;;;12.65;83.60
78411;BME280;67706;51.074;-1.796;2023-05-07T08:10:25;101258.00;;;12.77;83.20
78411;BME280;67706;51.074;-1.796;2023-05-07T08:12:53;101251.97;;;12.95;82.52
78411;BME280;67706;51.074;-1.796;2023-05-07T08:15:20;101264.19;;;12.86;83.10
78411;BME280;67706;51.074;-1.796;2023-05-07T08:17:46;101263.41;;;12.99;83.10
78411;BME280;67706;51.074;-1.796;2023-05-07T08:20:13;101272.88;;;13.17;82.92
78411;BME280;67706;51.074;-1.796;2023-05-07T08:22:40;101258.91;;;13.19;82.36
78411;BME280;67706;51.074;-1.796;2023-05-07T08:25:07;101261.53;;;13.40;81.94
78411;BME280;67706;51.074;-1.796;2023-05-07T08:27:34;101266.00;;;13.47;80.34
78411;BME280;67706;51.074;-1.796;2023-05-07T08:30:03;101271.38;;;13.69;79.98
78411;BME280;67706;51.074;-1.796;2023-05-07T08:32:30;101274.41;;;13.87;79.49
78411;BME280;67706;51.074;-1.796;2023-05-07T08:34:57;101284.59;;;13.86;79.03
78411;BME280;67706;51.074;-1.796;2023-05-07T08:37:23;101276.09;;;13.81;79.13
78411;BME280;67706;51.074;-1.796;2023-05-07T08:39:50;101264.41;;;13.79;78.64
78411;BME280;67706;51.074;-1.796;2023-05-07T08:42:17;101266.56;;;14.03;78.22
78411;BME280;67706;51.074;-1.796;2023-05-07T08:44:45;101274.69;;;14.11;78.09
78411;BME280;67706;51.074;-1.796;2023-05-07T08:47:14;101280.38;;;13.97;78.50
78411;BME280;67706;51.074;-1.796;2023-05-07T08:49:45;101290.56;;;13.96;78.42
78411;BME280;67706;51.074;-1.796;2023-05-07T08:52:12;101271.47;;;13.95;78.03
78411;BME280;67706;51.074;-1.796;2023-05-07T08:54:39;101276.50;;;13.85;78.46
78411;BME280;67706;51.074;-1.796;2023-05-07T08:57:06;101285.25;;;13.95;77.40
78411;BME280;67706;51.074;-1.796;2023-05-07T08:59:33;101291.41;;;14.10;77.33
78411;BME280;67706;51.074;-1.796;2023-05-07T09:02:00;101296.09;;;14.16;76.66
78411;BME280;67706;51.074;-1.796;2023-05-07T09:04:28;101283.78;;;14.18;76.83
78411;BME280;67706;51.074;-1.796;2023-05-07T09:06:57;101285.69;;;14.24;76.99
78411;BME280;67706;51.074;-1.796;2023-05-07T09:09:29;101286.38;;;14.40;76.98
78411;BME280;67706;51.074;-1.796;2023-05-07T09:11:57;101290.63;;;14.29;77.30
78411;BME280;67706;51.074;-1.796;2023-05-07T09:14:25;101288.94;;;14.35;77.59
78411;BME280;67706;51.074;-1.796;2023-05-07T09:16:52;101295.75;;;14.45;76.49
78411;BME280;67706;51.074;-1.796;2023-05-07T09:19:22;101288.50;;;14.38;76.08
78411;BME280;67706;51.074;-1.796;2023-05-07T09:21:57;101295.09;;;14.63;76.79
78411;BME280;67706;51.074;-1.796;2023-05-07T09:24:24;101296.38;;;14.54;75.91
78411;BME280;67706;51.074;-1.796;2023-05-07T09:26:51;101302.97;;;14.53;77.12
78411;BME280;67706;51.074;-1.796;2023-05-07T09:29:17;101314.00;;;14.53;75.94
78411;BME280;67706;51.074;-1.796;2023-05-07T09:31:44;101320.16;;;14.68;76.04
78411;BME280;67706;51.074;-1.796;2023-05-07T09:34:11;101318.69;;;14.72;76.05
78411;BME280;67706;51.074;-1.796;2023-05-07T09:36:38;101328.44;;;14.61;76.27
78411;BME280;67706;51.074;-1.796;2023-05-07T09:39:06;101325.25;;;14.84;75.86
78411;BME280;67706;51.074;-1.796;2023-05-07T09:41:43;101327.38;;;14.82;75.41
78411;BME280;67706;51.074;-1.796;2023-05-07T09:44:10;101325.66;;;14.87;74.85
78411;BME280;67706;51.074;-1.796;2023-05-07T09:46:38;101331.41;;;14.92;74.67
78411;BME280;67706;51.074;-1.796;2023-05-07T09:49:06;101329.69;;;14.91;74.39
78411;BME280;67706;51.074;-1.796;2023-05-07T09:51:39;101325.81;;;15.19;73.23
78411;BME280;67706;51.074;-1.796;2023-05-07T09:54:10;101331.56;;;15.17;73.42
78411;BME280;67706;51.074;-1.796;2023-05-07T09:56:37;101327.91;;;15.36;72.45
78411;BME280;67706;51.074;-1.796;2023-05-07T09:59:05;101318.75;;;15.55;72.15
78411;BME280;67706;51.074;-1.796;2023-05-07T10:01:36;101326.19;;;15.55;71.27
78411;BME280;67706;51.074;-1.796;2023-05-07T10:04:03;101322.09;;;15.64;71.63
78411;BME280;67706;51.074;-1.796;2023-05-07T10:06:30;101326.06;;;15.81;70.57
78411;BME280;67706;51.074;-1.796;2023-05-07T10:08:57;101333.84;;;15.53;69.81
78411;BME280;67706;51.074;-1.796;2023-05-07T10:11:26;101339.78;;;15.56;70.96
78411;BME280;67706;51.074;-1.796;2023-05-07T10:13:54;101338.50;;;15.59;70.97
78411;BME280;67706;51.074;-1.796;2023-05-07T10:16:21;101331.66;;;15.68;71.28
78411;BME280;67706;51.074;-1.796;2023-05-07T10:18:47;101331.69;;;15.61;70.99
78411;BME280;67706;51.074;-1.796;2023-05-07T10:21:17;101329.25;;;15.84;71.02
78411;BME280;67706;51.074;-1.796;2023-05-07T10:23:45;101325.66;;;15.71;70.05
78411;BME280;67706;51.074;-1.796;2023-05-07T10:26:13;101328.41;;;15.77;70.71
78411;BME280;67706;51.074;-1.796;2023-05-07T10:28:44;101335.34;;;16.00;70.18
78411;BME280;67706;51.074;-1.796;2023-05-07T10:31:38;101330.28;;;15.83;68.84
78411;BME280;67706;51.074;-1.796;2023-05-07T10:34:11;101343.34;;;15.76;69.44
78411;BME280;67706;51.074;-1.796;2023-05-07T10:36:40;101344.28;;;16.02;68.56
78411;BME280;67706;51.074;-1.796;2023-05-07T10:39:07;101347.66;;;16.04;69.42
78411;BME280;67706;51.074;-1.796;2023-05-07T10:41:34;101345.81;;;16.29;67.90
78411;BME280;67706;51.074;-1.796;2023-05-07T10:44:03;101342.41;;;16.27;68.53
78411;BME280;67706;51.074;-1.796;2023-05-07T10:46:30;101346.16;;;16.39;69.31
78411;BME280;67706;51.074;-1.796;2023-05-07T10:49:07;101350.22;;;16.67;67.86
78411;BME280;67706;51.074;-1.796;2023-05-07T10:51:35;101343.72;;;16.80;65.00
78411;BME280;67706;51.074;-1.796;2023-05-07T10:54:23;101345.44;;;16.81;64.63
78411;BME280;67706;51.074;-1.796;2023-05-07T10:56:50;101350.06;;;16.87;64.87
78411;BME280;67706;51.074;-1.796;2023-05-07T10:59:33;101349.84;;;16.89;64.27
78411;BME280;67706;51.074;-1.796;2023-05-07T11:02:06;101344.75;;;17.10;64.18
78411;BME280;67706;51.074;-1.796;2023-05-07T11:04:34;101357.34;;;16.88;64.51
78411;BME280;67706;51.074;-1.796;2023-05-07T11:07:26;101347.06;;;17.13;63.05
78411;BME280;67706;51.074;-1.796;2023-05-07T11:09:55;101353.91;;;16.86;63.47
78411;BME280;67706;51.074;-1.796;2023-05-07T11:12:53;101362.16;;;16.68;63.75
78411;BME280;67706;51.074;-1.796;2023-05-07T11:15:42;101365.97;;;16.98;63.85
78411;BME280;67706;51.074;-1.796;2023-05-07T11:18:10;101361.13;;;17.12;62.97
78411;BME280;67706;51.074;-1.796;2023-05-07T11:20:48;101357.38;;;17.24;63.03
78411;BME280;67706;51.074;-1.796;2023-05-07T11:26:45;101372.28;;;17.05;62.27
78411;BME280;67706;51.074;-1.796;2023-05-07T11:29:14;101380.38;;;16.82;62.60
78411;BME280;67706;51.074;-1.796;2023-05-07T11:31:42;101371.63;;;16.85;61.93
78411;BME280;67706;51.074;-1.796;2023-05-07T11:34:09;101368.28;;;16.77;61.72
78411;BME280;67706;51.074;-1.796;2023-05-07T11:36:42;101368.19;;;16.65;62.42
78411;BME280;67706;51.074;-1.796;2023-05-07T11:39:28;101364.22;;;16.79;62.72
78411;BME280;67706;51.074;-1.796;2023-05-07T11:41:55;101373.16;;;17.24;62.69
78411;BME280;67706;51.074;-1.796;2023-05-07T11:44:22;101371.34;;;16.93;61.19
78411;BME280;67706;51.074;-1.796;2023-05-07T11:46:50;101376.66;;;17.19;60.85
78411;BME280;67706;51.074;-1.796;2023-05-07T11:49:17;101375.13;;;16.99;61.69
78411;BME280;67706;51.074;-1.796;2023-05-07T11:51:44;101376.44;;;16.96;61.49
78411;BME280;67706;51.074;-1.796;2023-05-07T11:54:15;101379.03;;;16.91;61.42
78411;BME280;67706;51.074;-1.796;2023-05-07T11:56:44;101368.94;;;16.72;62.15
78411;BME280;67706;51.074;-1.796;2023-05-07T11:59:11;101371.91;;;16.77;61.95
78411;BME280;67706;51.074;-1.796;2023-05-07T12:01:38;101375.41;;;16.91;61.43
78411;BME280;67706;51.074;-1.796;2023-05-07T12:04:06;101373.59;;;17.27;60.92
78411;BME280;67706;51.074;-1.796;2023-05-07T12:06:36;101375.19;;;17.78;59.33
78411;BME280;67706;51.074;-1.796;2023-05-07T12:09:02;101376.09;;;17.90;58.71
78411;BME280;67706;51.074;-1.796;2023-05-07T12:11:30;101377.00;;;18.20;59.33
78411;BME280;67706;51.074;-1.796;2023-05-07T12:13:56;101373.81;;;18.16;58.01
78411;BME280;67706;51.074;-1.796;2023-05-07T12:16:23;101377.00;;;18.02;58.48
78411;BME280;67706;51.074;-1.796;2023-05-07T12:18:50;101376.53;;;18.05;56.75
78411;BME280;67706;51.074;-1.796;2023-05-07T12:21:21;101374.84;;;18.04;57.53
78411;BME280;67706;51.074;-1.796;2023-05-07T12:23:48;101369.72;;;18.19;56.46
78411;BME280;67706;51.074;-1.796;2023-05-07T12:26:15;101374.59;;;18.35;56.12
78411;BME280;67706;51.074;-1.796;2023-05-07T12:28:42;101361.31;;;18.25;56.78
78411;BME280;67706;51.074;-1.796;2023-05-07T12:31:08;101362.16;;;18.26;55.71
78411;BME280;67706;51.074;-1.796;2023-05-07T12:33:35;101372.50;;;18.19;57.04
78411;BME280;67706;51.074;-1.796;2023-05-07T12:36:06;101360.44;;;18.25;56.03
78411;BME280;67706;51.074;-1.796;2023-05-07T12:38:38;101358.28;;;18.27;53.84
78411;BME280;67706;51.074;-1.796;2023-05-07T12:41:07;101362.09;;;18.14;53.78
78411;BME280;67706;51.074;-1.796;2023-05-07T12:43:34;101358.56;;;18.37;55.71
78411;BME280;67706;51.074;-1.796;2023-05-07T12:46:03;101362.59;;;18.82;55.94
78411;BME280;67706;51.074;-1.796;2023-05-07T12:48:30;101368.09;;;18.59;56.06